Time;durP1;ratioP1;P1;durP2;ratioP2;P2;SDS_P1;SDS_P2;PMS_P1;PMS_P2;Temp;Humidity;BMP_temperature;BMP_pressure;BME280_temperature;BME280_humidity;BME280_pressure;Samples;Min_cycle;Max_cycle;Signal;HPM_P1;HPM_P2
2022/07/21 00:01:59;;;;;;;;;;;;;;;-144.99;70.41;52040.47;5068791;28;20376;-78
2022/07/21 00:04:25;;;;;;;;;;;;;;;-144.99;70.83;52044.53;5073224;28;19924;-78
2022/07/21 00:06:52;;;;;;;;;;;;;;;-144.99;71.40;52016.00;5067226;28;19928;-79
2022/07/21 00:09:19;;;;;;;;;;;;;;;-144.99;72.00;52077.16;5067763;28;19924;-78
2022/07/21 00:11:46;;;;;;;;;;;;;;;-144.99;72.04;52060.84;5063505;28;20427;-78
2022/07/21 00:14:12;;;;;;;;;;;;;;;-144.99;72.37;52064.91;5065585;28;19924;-78
2022/07/21 00:16:40;;;;;;;;;;;;;;;-144.99;72.65;52083.25;5067069;28;20273;-77
2022/07/21 00:19:08;;;;;;;;;;;;;;;-144.99;73.20;52101.59;5088094;28;19993;-76
2022/07/21 00:21:35;;;;;;;;;;;;;;;-144.99;73.66;52052.69;5073783;28;20043;-79
2022/07/21 00:24:02;;;;;;;;;;;;;;;-144.99;74.25;52111.78;5066831;28;19928;-78
2022/07/21 00:26:28;;;;;;;;;;;;;;;-144.99;74.72;52060.84;5066968;28;20414;-79
2022/07/21 00:28:55;;;;;;;;;;;;;;;-144.99;74.98;52064.91;5065857;28;19925;-78
2022/07/21 00:31:22;;;;;;;;;;;;;;;-144.99;75.37;52091.41;5061997;28;20133;-75
2022/07/21 00:33:51;;;;;;;;;;;;;;;-144.99;75.81;52048.63;5061636;28;19931;-73
2022/07/21 00:36:19;;;;;;;;;;;;;;;-144.99;76.21;52085.31;5049049;28;20355;-77
2022/07/21 00:38:46;;;;;;;;;;;;;;;-144.99;76.73;52105.69;5066429;28;19933;-75
2022/07/21 00:41:13;;;;;;;;;;;;;;;-144.99;76.98;52052.69;5063811;28;20031;-77
2022/07/21 00:43:39;;;;;;;;;;;;;;;-144.99;77.50;52093.44;5061384;28;20000;-75
2022/07/21 00:46:06;;;;;;;;;;;;;;;-144.99;77.74;52089.38;5061879;28;20099;-76
2022/07/21 00:48:33;;;;;;;;;;;;;;;-144.99;78.22;52085.31;5064431;28;20020;-74
2022/07/21 00:50:59;;;;;;;;;;;;;;;-144.99;78.82;52075.09;5060311;28;19925;-78
2022/07/21 00:53:28;;;;;;;;;;;;;;;-144.99;79.35;52089.38;5061208;28;19939;-77
2022/07/21 00:55:54;;;;;;;;;;;;;;;-144.99;79.58;52064.91;5062422;28;19963;-74
2022/07/21 00:58:21;;;;;;;;;;;;;;;-144.99;80.03;52052.69;5066348;28;19964;-77
2022/07/21 01:00:48;;;;;;;;;;;;;;;-144.99;80.36;52081.22;5066972;28;19929;-76
2022/07/21 01:03:15;;;;;;;;;;;;;;;-144.99;80.34;52064.91;5062572;28;19997;-77
2022/07/21 01:05:42;;;;;;;;;;;;;;;-144.99;80.66;52064.91;5067564;28;20026;-77
2022/07/21 01:08:08;;;;;;;;;;;;;;;-144.99;80.93;52064.91;5068058;28;19925;-76
2022/07/21 01:10:37;;;;;;;;;;;;;;;-144.99;80.97;52105.69;5067715;28;19928;-74
2022/07/21 01:13:03;;;;;;;;;;;;;;;-144.99;81.24;52060.84;5062197;28;21628;-77
2022/07/21 01:15:30;;;;;;;;;;;;;;;-144.99;81.53;52056.78;5063774;28;19931;-77
2022/07/21 01:17:57;;;;;;;;;;;;;;;-144.99;81.56;52032.31;5065557;28;19984;-75
2022/07/21 01:20:25;;;;;;;;;;;;;;;-144.99;81.81;52073.06;5066118;28;20129;-76
2022/07/21 01:22:55;;;;;;;;;;;;;;;-144.99;82.46;52073.06;5065972;28;19990;-77
2022/07/21 01:25:23;;;;;;;;;;;;;;;-144.99;82.58;52048.63;5064925;28;20281;-77
2022/07/21 01:27:50;;;;;;;;;;;;;;;-144.99;82.72;52089.38;5063802;28;20025;-76
2022/07/21 01:30:17;;;;;;;;;;;;;;;-144.99;83.27;52083.25;5066343;28;19924;-77
2022/07/21 01:32:44;;;;;;;;;;;;;;;-144.99;83.94;52085.31;5063920;28;19975;-77
2022/07/21 01:35:12;;;;;;;;;;;;;;;-144.99;85.26;52062.88;5063786;28;19932;-76
2022/07/21 01:37:39;;;;;;;;;;;;;;;-144.99;86.98;52101.59;5065920;28;19931;-76
2022/07/21 01:42:53;;;;;;;;;;;;;;;-144.99;97.71;52105.69;5059845;28;19936;-73
2022/07/21 01:45:20;;;;;;;;;;;;;;;-144.99;100.00;52124.03;5066258;28;19931;-76
2022/07/21 01:47:47;;;;;;;;;;;;;;;-144.99;100.00;52089.38;5066585;28;20449;-75
2022/07/21 01:50:14;;;;;;;;;;;;;;;-144.99;100.00;52105.69;5065375;28;19932;-75
2022/07/21 01:52:40;;;;;;;;;;;;;;;-144.99;100.00;52105.69;5063775;28;20024;-74
2022/07/21 01:55:09;;;;;;;;;;;;;;;-144.99;100.00;52117.91;5067346;28;20387;-73
2022/07/21 01:57:35;;;;;;;;;;;;;;;-144.99;100.00;52113.84;5066071;28;19934;-77
2022/07/21 02:00:03;;;;;;;;;;;;;;;-144.99;100.00;52077.16;5065990;28;20448;-73
2022/07/21 02:02:30;;;;;;;;;;;;;;;-144.99;100.00;52083.25;5058731;28;19939;-77
2022/07/21 02:04:56;;;;;;;;;;;;;;;-144.99;100.00;52101.59;5062742;28;20016;-75
2022/07/21 02:07:23;;;;;;;;;;;;;;;-144.99;100.00;52073.06;5065840;28;20733;-76
2022/07/21 02:09:50;;;;;;;;;;;;;;;-144.99;100.00;52113.84;5063564;28;20019;-76
2022/07/21 02:12:18;;;;;;;;;;;;;;;-144.99;100.00;52085.31;5061821;28;20409;-74
2022/07/21 02:14:44;;;;;;;;;;;;;;;-144.99;100.00;52054.72;5063239;28;19939;-75
2022/07/21 02:17:11;;;;;;;;;;;;;;;-144.99;100.00;52087.34;5065771;28;20015;-76
2022/07/21 02:19:38;;;;;;;;;;;;;;;-144.99;100.00;52111.78;5066000;28;20011;-77
2022/07/21 02:22:04;;;;;;;;;;;;;;;-144.99;100.00;52093.44;5063251;28;19963;-74
2022/07/21 02:24:31;;;;;;;;;;;;;;;-144.99;100.00;52077.16;5063955;28;19929;-75
2022/07/21 02:26:58;;;;;;;;;;;;;;;-144.99;100.00;52105.69;5064987;28;20545;-75
2022/07/21 02:29:26;;;;;;;;;;;;;;;-144.99;100.00;52093.44;5066685;28;19928;-75
2022/07/21 02:31:53;;;;;;;;;;;;;;;-144.99;100.00;52069.00;5062022;28;20370;-75
2022/07/21 02:34:19;;;;;;;;;;;;;;;-144.99;100.00;52044.53;5066104;28;19930;-75
2022/07/21 02:36:46;;;;;;;;;;;;;;;-144.99;100.00;52071.03;5096526;22;19928;-73
2022/07/21 02:39:13;;;;;;;;;;;;;;;-144.99;100.00;52077.16;5038374;28;20014;-73
2022/07/21 02:41:39;;;;;;;;;;;;;;;-144.99;100.00;52089.38;5045503;28;19927;-74
2022/07/21 02:44:06;;;;;;;;;;;;;;;-144.99;100.00;52064.91;5051280;28;19925;-74
2022/07/21 02:46:34;;;;;;;;;;;;;;;-144.99;100.00;52060.84;5051001;28;19976;-74
2022/07/21 02:49:00;;;;;;;;;;;;;;;-144.99;100.00;52048.63;5046710;28;20268;-74
2022/07/21 02:51:27;;;;;;;;;;;;;;;-144.99;100.00;52089.38;5044429;28;19944;-73
2022/07/21 02:53:54;;;;;;;;;;;;;;;-144.99;100.00;52069.00;5044248;28;19929;-73
2022/07/21 02:56:20;;;;;;;;;;;;;;;-144.99;100.00;52060.84;5045172;28;19925;-74
2022/07/21 02:58:47;;;;;;;;;;;;;;;-144.99;100.00;52056.78;5042442;28;20354;-74
2022/07/21 03:01:14;;;;;;;;;;;;;;;-144.99;100.00;52056.78;5043237;28;19928;-73
2022/07/21 03:03:42;;;;;;;;;;;;;;;-144.99;100.00;52081.22;5043979;28;19935;-72
2022/07/21 03:06:08;;;;;;;;;;;;;;;-144.99;100.00;52103.66;5045054;28;19928;-74
2022/07/21 03:08:35;;;;;;;;;;;;;;;-144.99;100.00;52083.25;5046911;28;19925;-73
2022/07/21 03:11:02;;;;;;;;;;;;;;;-144.99;100.00;52105.69;5047301;28;19928;-74
2022/07/21 03:13:29;;;;;;;;;;;;;;;-144.99;100.00;52077.16;5041670;28;19925;-74
2022/07/21 03:15:55;;;;;;;;;;;;;;;-144.99;100.00;52109.75;5049336;28;19929;-75
2022/07/21 03:18:22;;;;;;;;;;;;;;;-144.99;100.00;52069.00;5044208;28;19932;-74
2022/07/21 03:20:50;;;;;;;;;;;;;;;-144.99;100.00;52095.50;5041571;28;19925;-73
2022/07/21 03:23:17;;;;;;;;;;;;;;;-144.99;100.00;52134.22;5044260;28;20095;-74
2022/07/21 03:25:43;;;;;;;;;;;;;;;-144.99;100.00;52097.53;5043334;28;19933;-74
2022/07/21 03:28:10;;;;;;;;;;;;;;;-144.99;100.00;52073.06;5045798;28;20427;-76
2022/07/21 03:30:37;;;;;;;;;;;;;;;-144.99;100.00;52081.22;5042540;28;19976;-76
2022/07/21 03:33:04;;;;;;;;;;;;;;;-144.99;100.00;52101.59;5042573;28;19933;-75
2022/07/21 03:35:30;;;;;;;;;;;;;;;-144.99;100.00;52081.22;5044357;28;19924;-75
2022/07/21 03:37:59;;;;;;;;;;;;;;;-144.99;100.00;52109.75;5046472;28;20233;-75
2022/07/21 03:40:27;;;;;;;;;;;;;;;-144.99;100.00;52089.38;5049781;28;19925;-75
2022/07/21 03:42:55;;;;;;;;;;;;;;;-144.99;100.00;52105.69;5047087;28;19924;-72
2022/07/21 03:45:22;;;;;;;;;;;;;;;-144.99;100.00;52060.84;5046448;28;19925;-74
2022/07/21 03:47:48;;;;;;;;;;;;;;;-144.99;100.00;52117.91;5046529;28;19928;-74
2022/07/21 03:50:17;;;;;;;;;;;;;;;-144.99;100.00;52085.31;5044275;28;19925;-74
2022/07/21 03:52:43;;;;;;;;;;;;;;;-144.99;100.00;52089.38;5046772;28;20030;-73
2022/07/21 03:55:14;;;;;;;;;;;;;;;-144.99;100.00;52085.31;5043922;28;19928;-76
2022/07/21 03:57:42;;;;;;;;;;;;;;;-144.99;100.00;52060.84;5046528;28;19925;-76
2022/07/21 04:00:10;;;;;;;;;;;;;;;-144.99;100.00;52071.03;5045036;28;19964;-75
2022/07/21 04:02:36;;;;;;;;;;;;;;;-144.99;100.00;52044.53;5044919;28;19929;-75
2022/07/21 04:05:03;;;;;;;;;;;;;;;-144.99;100.00;52099.56;5046383;28;19932;-75
2022/07/21 04:07:30;;;;;;;;;;;;;;;-144.99;100.00;52077.16;5046595;28;19925;-76
2022/07/21 04:09:56;;;;;;;;;;;;;;;-144.99;100.00;52060.84;5047564;28;19937;-74
2022/07/21 04:12:27;;;;;;;;;;;;;;;-144.99;100.00;52101.59;5048100;28;19929;-75
2022/07/21 04:14:53;;;;;;;;;;;;;;;-144.99;100.00;52069.00;5051108;28;19933;-74
2022/07/21 04:17:20;;;;;;;;;;;;;;;-144.99;100.00;52097.53;5048226;28;19932;-74
2022/07/21 04:19:47;;;;;;;;;;;;;;;-144.99;100.00;52056.78;5049027;28;20136;-74
2022/07/21 04:22:13;;;;;;;;;;;;;;;-144.99;100.00;52101.59;5046977;28;20368;-76
2022/07/21 04:24:40;;;;;;;;;;;;;;;-144.99;100.00;52056.78;5051254;28;19925;-75
2022/07/21 04:27:06;;;;;;;;;;;;;;;-144.99;100.00;52016.00;5049393;28;19929;-76
2022/07/21 04:29:34;;;;;;;;;;;;;;;-144.99;100.00;52040.47;5049906;28;19979;-76
2022/07/21 04:32:01;;;;;;;;;;;;;;;-144.99;100.00;52048.63;5049101;28;19929;-77
2022/07/21 04:34:28;;;;;;;;;;;;;;;-144.99;100.00;52058.81;5056957;28;20040;-75
2022/07/21 04:36:55;;;;;;;;;;;;;;;-144.99;100.00;52075.09;5057324;28;20276;-75
2022/07/21 04:39:21;;;;;;;;;;;;;;;-144.99;100.00;52093.44;5052757;28;20312;-74
2022/07/21 04:41:48;;;;;;;;;;;;;;;-144.99;100.00;52024.16;5044929;28;20392;-77
2022/07/21 04:44:14;;;;;;;;;;;;;;;-144.99;100.00;52024.16;5045518;28;19936;-76
2022/07/21 04:46:43;;;;;;;;;;;;;;;-144.99;100.00;52069.00;5043240;28;19925;-77
2022/07/21 04:49:09;;;;;;;;;;;;;;;-144.99;100.00;52064.91;5043237;28;20280;-76
2022/07/21 04:51:36;;;;;;;;;;;;;;;-144.99;100.00;52056.78;5039960;28;19932;-78
2022/07/21 04:54:02;;;;;;;;;;;;;;;-144.99;100.00;52089.38;5044658;28;19932;-77
2022/07/21 04:56:29;;;;;;;;;;;;;;;-144.99;100.00;52032.31;5045716;28;19972;-78
2022/07/21 04:58:56;;;;;;;;;;;;;;;-144.99;100.00;52081.22;5040709;28;19948;-79
2022/07/21 05:01:22;;;;;;;;;;;;;;;-144.99;100.00;52062.88;5044076;28;19925;-73
2022/07/21 05:03:50;;;;;;;;;;;;;;;-144.99;100.00;52040.47;5054641;28;19983;-77
2022/07/21 05:06:17;;;;;;;;;;;;;;;-144.99;100.00;52030.28;5050598;28;20472;-77
2022/07/21 05:08:44;;;;;;;;;;;;;;;-144.99;100.00;52042.50;5044508;28;19928;-76
2022/07/21 05:11:10;;;;;;;;;;;;;;;-144.99;100.00;52079.19;5045012;28;19925;-77
2022/07/21 05:13:37;;;;;;;;;;;;;;;-144.99;100.00;52028.22;5045661;28;20183;-77
2022/07/21 05:16:10;;;;;;;;;;;;;;;-144.99;100.00;52044.53;4940014;28;9999903;-75
2022/07/21 05:18:37;;;;;;;;;;;;;;;-144.99;100.00;52048.63;5043385;28;20297;-74
2022/07/21 05:21:05;;;;;;;;;;;;;;;-144.99;100.00;52052.69;5044668;28;20427;-76
2022/07/21 05:23:32;;;;;;;;;;;;;;;-144.99;100.00;52056.78;5052541;28;20427;-76
2022/07/21 05:25:58;;;;;;;;;;;;;;;-144.99;100.00;52048.63;5048827;28;19928;-76
2022/07/21 05:28:25;;;;;;;;;;;;;;;-144.99;100.00;52056.78;5044585;28;20455;-76
2022/07/21 05:30:51;;;;;;;;;;;;;;;-144.99;100.00;52069.00;5044704;28;19951;-76
2022/07/21 05:33:18;;;;;;;;;;;;;;;-144.99;100.00;52077.16;5048507;28;19932;-75
2022/07/21 05:35:44;;;;;;;;;;;;;;;-144.99;100.00;52069.00;5042704;28;19929;-75
2022/07/21 05:38:12;;;;;;;;;;;;;;;-144.99;99.39;52036.38;5043595;28;19933;-76
2022/07/21 05:40:39;;;;;;;;;;;;;;;-144.99;99.45;52083.25;5040448;28;19924;-75
2022/07/21 05:43:06;;;;;;;;;;;;;;;-144.99;99.44;52087.34;5034598;28;19959;-74
2022/07/21 05:45:32;;;;;;;;;;;;;;;-144.99;99.66;52064.91;5043213;28;20380;-74
2022/07/21 05:47:59;;;;;;;;;;;;;;;-144.99;99.93;52048.63;5045632;28;20106;-75
2022/07/21 05:50:25;;;;;;;;;;;;;;;-144.99;99.90;52069.00;5045988;28;19933;-74
2022/07/21 05:52:52;;;;;;;;;;;;;;;-144.99;99.77;52069.00;5038529;28;20368;-75
2022/07/21 05:55:20;;;;;;;;;;;;;;;-144.99;99.31;52066.97;5038907;28;20375;-76
2022/07/21 05:57:46;;;;;;;;;;;;;;;-144.99;99.34;52052.69;5047161;28;20343;-76
2022/07/21 06:00:14;;;;;;;;;;;;;;;-144.99;99.03;52058.81;5046641;28;19952;-76
2022/07/21 06:02:40;;;;;;;;;;;;;;;-144.99;100.00;52060.84;5045417;28;19924;-76
2022/07/21 06:05:08;;;;;;;;;;;;;;;-144.99;100.00;52052.69;5044850;28;20455;-74
2022/07/21 06:07:34;;;;;;;;;;;;;;;-144.99;100.00;52077.16;5046616;28;20289;-76
2022/07/21 06:10:01;;;;;;;;;;;;;;;-144.99;100.00;52099.56;5048202;28;19940;-76
2022/07/21 06:12:29;;;;;;;;;;;;;;;-144.99;100.00;52105.69;5045136;28;20098;-76
2022/07/21 06:14:56;;;;;;;;;;;;;;;-144.99;100.00;52097.53;5051571;28;20430;-74
2022/07/21 06:17:22;;;;;;;;;;;;;;;-144.99;100.00;52103.66;5046936;28;20047;-75
2022/07/21 06:19:49;;;;;;;;;;;;;;;-144.99;100.00;52081.22;5045841;28;20434;-75
2022/07/21 06:22:16;;;;;;;;;;;;;;;-144.99;100.00;52060.84;5045609;28;20406;-75
2022/07/21 06:24:42;;;;;;;;;;;;;;;-144.99;100.00;52064.91;5049573;28;19929;-75
2022/07/21 06:27:09;;;;;;;;;;;;;;;-144.99;100.00;52087.34;5046512;28;19936;-73
2022/07/21 06:29:37;;;;;;;;;;;;;;;-144.99;100.00;52044.53;5047577;28;19928;-76
2022/07/21 06:32:04;;;;;;;;;;;;;;;-144.99;100.00;52060.84;5043847;28;19924;-76
2022/07/21 06:34:30;;;;;;;;;;;;;;;-144.99;100.00;52064.91;5046766;28;19924;-76
2022/07/21 06:36:57;;;;;;;;;;;;;;;-144.99;100.00;52075.09;5045359;28;19929;-76
2022/07/21 06:39:23;;;;;;;;;;;;;;;-144.99;100.00;52113.84;5047925;28;19928;-76
2022/07/21 06:41:50;;;;;;;;;;;;;;;-144.99;100.00;52126.06;5047472;28;19933;-74
2022/07/21 06:44:17;;;;;;;;;;;;;;;-144.99;100.00;52077.16;5041715;28;20002;-78
2022/07/21 06:46:45;;;;;;;;;;;;;;;-144.99;100.00;52069.00;5046772;28;19929;-75
2022/07/21 06:49:11;;;;;;;;;;;;;;;-144.99;100.00;52085.31;5046593;28;19936;-74
2022/07/21 06:51:38;;;;;;;;;;;;;;;-144.99;100.00;52064.91;5035921;28;20406;-77
2022/07/21 06:54:05;;;;;;;;;;;;;;;-144.99;100.00;52056.78;5049572;28;19929;-75
2022/07/21 06:56:31;;;;;;;;;;;;;;;-144.99;100.00;52073.06;5047088;28;19928;-74
2022/07/21 06:58:58;;;;;;;;;;;;;;;-144.99;100.00;52071.03;5046585;28;19929;-76
2022/07/21 07:01:24;;;;;;;;;;;;;;;-144.99;100.00;52079.19;5043763;28;20422;-75
2022/07/21 07:03:52;;;;;;;;;;;;;;;-144.99;100.00;52083.25;5055147;28;19950;-74
2022/07/21 07:06:19;;;;;;;;;;;;;;;-144.99;100.00;52089.38;5044297;28;20130;-75
2022/07/21 07:08:46;;;;;;;;;;;;;;;-144.99;100.00;52109.75;5046852;28;19925;-75
2022/07/21 07:11:12;;;;;;;;;;;;;;;-144.99;100.00;52077.16;5046814;28;19929;-78
2022/07/21 07:13:39;;;;;;;;;;;;;;;-144.99;100.00;52107.72;5051615;28;19929;-74
2022/07/21 07:16:06;;;;;;;;;;;;;;;-144.99;100.00;52058.81;5037562;28;19928;-76
2022/07/21 07:18:32;;;;;;;;;;;;;;;-144.99;100.00;52077.16;5042956;28;19933;-75
2022/07/21 07:21:00;;;;;;;;;;;;;;;-144.99;100.00;52066.97;5044837;28;20202;-74
2022/07/21 07:23:27;;;;;;;;;;;;;;;-144.99;100.00;52071.03;5051304;28;20210;-75
2022/07/21 07:25:53;;;;;;;;;;;;;;;-144.99;100.00;52073.06;5051832;28;19932;-75
2022/07/21 07:28:20;;;;;;;;;;;;;;;-144.99;100.00;52050.66;5039478;28;19982;-75
2022/07/21 07:30:48;;;;;;;;;;;;;;;-144.99;100.00;52066.97;5041045;28;20372;-74
2022/07/21 07:33:14;;;;;;;;;;;;;;;-144.99;100.00;52126.06;5042923;28;20016;-76
2022/07/21 07:35:41;;;;;;;;;;;;;;;-144.99;100.00;52069.00;5044194;28;19956;-73
2022/07/21 07:38:13;;;;;;;;;;;;;;;-144.99;100.00;52079.19;5045122;28;19929;-75
2022/07/21 07:40:39;;;;;;;;;;;;;;;-144.99;100.00;52075.09;5045426;28;19928;-75
2022/07/21 07:43:06;;;;;;;;;;;;;;;-144.99;100.00;52060.84;5044869;28;20067;-76
2022/07/21 07:45:32;;;;;;;;;;;;;;;-144.99;100.00;52085.31;5046742;28;20714;-78
2022/07/21 07:47:59;;;;;;;;;;;;;;;-144.99;100.00;52044.53;5047588;28;19928;-76
2022/07/21 07:50:25;;;;;;;;;;;;;;;-144.99;100.00;52093.44;5042772;28;20402;-74
2022/07/21 07:52:51;;;;;;;;;;;;;;;-144.99;100.00;52036.38;5033533;28;19933;-74
2022/07/21 07:55:19;;;;;;;;;;;;;;;-144.99;100.00;52095.50;5043133;28;19933;-74
2022/07/21 07:57:46;;;;;;;;;;;;;;;-144.99;100.00;52095.50;5046691;28;19933;-74
2022/07/21 08:00:14;;;;;;;;;;;;;;;-144.99;100.00;52091.41;5043732;28;19925;-76
2022/07/21 08:02:41;;;;;;;;;;;;;;;-144.99;100.00;52107.72;5039383;28;19925;-76
2022/07/21 08:05:08;;;;;;;;;;;;;;;-144.99;100.00;52093.44;5035510;28;19936;-76
2022/07/21 08:07:35;;;;;;;;;;;;;;;-144.99;100.00;52056.78;5044597;28;19975;-74
2022/07/21 08:10:02;;;;;;;;;;;;;;;-144.99;100.00;52081.22;5043706;28;20022;-74
2022/07/21 08:12:30;;;;;;;;;;;;;;;-144.99;100.00;52093.44;5037788;28;19994;-73
2022/07/21 08:14:56;;;;;;;;;;;;;;;-144.99;100.00;52032.31;5031933;28;19975;-73
2022/07/21 08:17:23;;;;;;;;;;;;;;;-144.99;100.00;52089.38;5041244;28;20195;-75
2022/07/21 08:19:49;;;;;;;;;;;;;;;-144.99;100.00;52071.03;5047484;28;20002;-73
2022/07/21 08:22:16;;;;;;;;;;;;;;;-144.99;100.00;52056.78;5043235;28;19929;-74
2022/07/21 08:24:42;;;;;;;;;;;;;;;-144.99;100.00;52113.84;5041847;28;20376;-75
2022/07/21 08:27:08;;;;;;;;;;;;;;;-144.99;100.00;52073.06;5041253;28;19936;-72
2022/07/21 08:29:36;;;;;;;;;;;;;;;-144.99;100.00;52091.41;5042817;28;20037;-74
2022/07/21 08:32:03;;;;;;;;;;;;;;;-144.99;100.00;52064.91;5042375;28;20384;-75
2022/07/21 08:34:30;;;;;;;;;;;;;;;-144.99;100.00;52077.16;5043352;28;19964;-73
2022/07/21 08:36:57;;;;;;;;;;;;;;;-144.99;100.00;52062.88;5048332;28;20132;-73
2022/07/21 08:39:24;;;;;;;;;;;;;;;-144.99;100.00;52077.16;5053797;22;20032;-76
2022/07/21 08:41:51;;;;;;;;;;;;;;;-144.99;100.00;52052.69;5023099;28;19936;-76
2022/07/21 08:44:18;;;;;;;;;;;;;;;-144.99;100.00;52040.47;5023519;28;19929;-72
2022/07/21 08:46:49;;;;;;;;;;;;;;;-144.99;100.00;52048.63;5024050;28;19929;-74
2022/07/21 08:49:16;;;;;;;;;;;;;;;-144.99;100.00;52056.78;5031355;28;19929;-76
2022/07/21 08:51:42;;;;;;;;;;;;;;;-144.99;100.00;52011.94;5031163;28;20022;-75
2022/07/21 08:54:09;;;;;;;;;;;;;;;-144.99;100.00;52060.84;5023010;28;19940;-75
2022/07/21 08:56:35;;;;;;;;;;;;;;;-144.99;100.00;52064.91;5026113;28;19964;-75
2022/07/21 08:59:02;;;;;;;;;;;;;;;-144.99;100.00;52073.06;5026673;28;19965;-75
2022/07/21 09:01:28;;;;;;;;;;;;;;;-144.99;100.00;52056.78;5013384;28;20039;-72
2022/07/21 09:03:57;;;;;;;;;;;;;;;-144.99;100.00;52087.34;5016665;28;19929;-75
2022/07/21 09:06:23;;;;;;;;;;;;;;;-144.99;100.00;51999.69;5021835;28;20020;-75
2022/07/21 09:08:50;;;;;;;;;;;;;;;-144.99;100.00;52060.84;5023677;28;19932;-74
2022/07/21 09:11:20;;;;;;;;;;;;;;;-144.99;100.00;52054.72;5003613;28;19983;-74
2022/07/21 09:13:51;;;;;;;;;;;;;;;-144.99;100.00;52089.38;5010019;28;19977;-72
2022/07/21 09:16:32;;;;;;;;;;;;;;;-144.99;100.00;52121.97;5014563;28;19936;-74
2022/07/21 09:19:00;;;;;;;;;;;;;;;-144.99;100.00;52085.31;5023739;28;19932;-74
2022/07/21 09:21:26;;;;;;;;;;;;;;;-144.99;100.00;52087.34;5012059;28;19925;-72
2022/07/21 09:23:53;;;;;;;;;;;;;;;-144.99;100.00;52073.06;5026162;28;19960;-74
2022/07/21 09:26:19;;;;;;;;;;;;;;;-144.99;100.00;52064.91;5023577;28;20042;-74
2022/07/21 09:28:46;;;;;;;;;;;;;;;-144.99;100.00;52077.16;5016127;28;19965;-72
2022/07/21 09:31:13;;;;;;;;;;;;;;;-144.99;100.00;52048.63;5028790;28;20603;-73
2022/07/21 09:33:41;;;;;;;;;;;;;;;-144.99;100.00;52062.88;5023623;28;19955;-74
2022/07/21 09:36:10;;;;;;;;;;;;;;;-144.99;100.00;52036.38;5032133;28;19940;-74
2022/07/21 09:38:38;;;;;;;;;;;;;;;-144.99;100.00;52062.88;5024828;28;19933;-74
2022/07/21 09:41:05;;;;;;;;;;;;;;;-144.99;100.00;52052.69;5019904;28;19933;-73
2022/07/21 09:43:33;;;;;;;;;;;;;;;-144.99;100.00;52048.63;5016918;28;20047;-74
2022/07/21 09:46:01;;;;;;;;;;;;;;;-144.99;100.00;52052.69;5029886;28;20307;-71
2022/07/21 09:48:31;;;;;;;;;;;;;;;-144.99;100.00;52016.00;5015124;28;19929;-73
2022/07/21 09:50:58;;;;;;;;;;;;;;;-144.99;100.00;52048.63;5010164;28;19933;-74
2022/07/21 09:53:26;;;;;;;;;;;;;;;-144.99;100.00;52016.00;5020726;28;19926;-74
2022/07/21 09:55:53;;;;;;;;;;;;;;;-144.99;100.00;52044.53;5018504;28;19980;-70
2022/07/21 09:58:20;;;;;;;;;;;;;;;-144.99;100.00;52048.63;5031926;28;20474;-71
2022/07/21 10:00:46;;;;;;;;;;;;;;;-144.99;100.00;52069.00;5010076;28;20388;-72
2022/07/21 10:03:13;;;;;;;;;;;;;;;-144.99;100.00;52077.16;5007595;28;19948;-71
2022/07/21 10:05:40;;;;;;;;;;;;;;;-144.99;100.00;52050.66;5019889;28;20369;-76
2022/07/21 10:08:06;;;;;;;;;;;;;;;-144.99;100.00;52052.69;5036838;28;20369;-76
2022/07/21 10:10:34;;;;;;;;;;;;;;;-144.99;100.00;52064.91;5026697;28;19929;-75
2022/07/21 10:13:01;;;;;;;;;;;;;;;-144.99;100.00;52073.06;5025788;28;19964;-75
2022/07/21 10:15:27;;;;;;;;;;;;;;;-144.99;100.00;52036.38;5032898;28;20454;-72
2022/07/21 10:17:55;;;;;;;;;;;;;;;-144.99;100.00;52048.63;5007338;28;20317;-76
2022/07/21 10:20:25;;;;;;;;;;;;;;;-144.99;100.00;52032.31;5023097;28;20035;-75
2022/07/21 10:22:57;;;;;;;;;;;;;;;-144.99;100.00;52011.94;5016242;28;20028;-75
2022/07/21 10:25:24;;;;;;;;;;;;;;;-144.99;96.38;51954.88;5016682;28;19933;-75
2022/07/21 10:28:09;;;;;;;;;;;;;;;-144.99;89.35;52007.84;5023965;28;20023;-76
2022/07/21 10:30:41;;;;;;;;;;;;;;;-144.99;85.40;52003.78;5018012;28;20428;-75
2022/07/21 10:33:07;;;;;;;;;;;;;;;-144.99;87.31;52048.63;5017409;28;19972;-74
2022/07/21 10:35:34;;;;;;;;;;;;;;;-144.99;90.05;52028.22;5027522;28;19936;-76
2022/07/21 10:38:01;;;;;;;;;;;;;;;-144.99;91.31;52044.53;5022168;28;20031;-75
2022/07/21 10:40:42;;;;;;;;;;;;;;;-144.99;93.08;52020.09;5015574;28;19933;-75
2022/07/21 10:43:26;;;;;;;;;;;;;;;-144.99;93.60;52073.06;5014566;28;19956;-73
2022/07/21 10:45:56;;;;;;;;;;;;;;;-144.99;93.69;52052.69;5012743;28;19972;-75
2022/07/21 10:48:44;;;;;;;;;;;;;;;-144.99;93.83;52073.06;5023859;28;19929;-74
2022/07/21 10:51:12;;;;;;;;;;;;;;;-144.99;95.15;52044.53;5011212;28;20307;-72
2022/07/21 10:53:38;;;;;;;;;;;;;;;-144.99;93.55;52044.53;5014203;28;19937;-73
2022/07/21 10:56:05;;;;;;;;;;;;;;;-144.99;91.49;52052.69;5025387;28;20055;-75
2022/07/21 10:58:33;;;;;;;;;;;;;;;-144.99;88.77;51995.63;5030562;28;19986;-73
2022/07/21 11:01:02;;;;;;;;;;;;;;;-144.99;84.53;52024.16;5011550;28;19925;-73
2022/07/21 11:03:30;;;;;;;;;;;;;;;-144.99;82.39;52009.91;5010142;28;19925;-72
2022/07/21 11:06:15;;;;;;;;;;;;;;;-144.99;80.82;51975.25;5010178;28;20412;-75
2022/07/21 11:08:42;;;;;;;;;;;;;;;-144.99;76.71;52003.78;5023856;28;20020;-74
2022/07/21 11:11:10;;;;;;;;;;;;;;;-144.99;75.01;52024.16;5017054;28;19956;-76
2022/07/21 11:13:55;;;;;;;;;;;;;;;-144.99;73.99;51952.81;5014682;28;19976;-75
2022/07/21 11:16:23;;;;;;;;;;;;;;;-144.99;74.07;51954.88;5014065;28;19937;-74
2022/07/21 11:18:49;;;;;;;;;;;;;;;-144.99;73.69;51926.34;5016042;28;20367;-75
2022/07/21 11:21:17;;;;;;;;;;;;;;;-144.99;71.61;52016.00;5016667;28;19951;-76
2022/07/21 11:23:45;;;;;;;;;;;;;;;-144.99;69.85;51979.31;5020277;28;19954;-76
2022/07/21 11:26:12;;;;;;;;;;;;;;;-144.99;68.75;51987.47;5021737;28;19929;-75
2022/07/21 11:28:39;;;;;;;;;;;;;;;-144.99;67.24;52040.47;5011710;28;20027;-75
2022/07/21 11:31:06;;;;;;;;;;;;;;;-144.99;67.79;52020.09;5030327;28;20050;-75
2022/07/21 11:33:36;;;;;;;;;;;;;;;-144.99;68.63;51979.31;5012348;28;20018;-76
2022/07/21 11:36:03;;;;;;;;;;;;;;;-144.99;67.19;51971.16;5029976;28;19968;-74
2022/07/21 11:38:29;;;;;;;;;;;;;;;-144.99;67.71;51985.44;5043927;28;19956;-77
2022/07/21 11:41:12;;;;;;;;;;;;;;;-144.99;66.05;51975.25;5038595;28;19929;-73
2022/07/21 11:43:42;;;;;;;;;;;;;;;-144.99;65.09;52011.94;5012229;28;20506;-77
2022/07/21 11:46:09;;;;;;;;;;;;;;;-144.99;64.67;51987.47;5026960;28;20435;-74
2022/07/21 11:48:36;;;;;;;;;;;;;;;-144.99;64.62;51885.56;5009032;28;19929;-76
2022/07/21 11:51:04;;;;;;;;;;;;;;;-144.99;64.14;51965.06;5008787;28;20575;-75
2022/07/21 11:53:31;;;;;;;;;;;;;;;-144.99;63.76;51967.09;5008936;28;19995;-75
2022/07/21 11:55:57;;;;;;;;;;;;;;;-144.99;60.81;51946.72;5025539;28;19987;-76
2022/07/21 11:58:24;;;;;;;;;;;;;;;-144.99;60.07;51979.31;5031706;28;20082;-74
2022/07/21 12:01:04;;;;;;;;;;;;;;;-144.99;58.86;52016.00;5008700;28;19964;-73
2022/07/21 12:03:30;;;;;;;;;;;;;;;-144.99;60.51;51950.78;5017487;28;19964;-78
2022/07/21 12:05:59;;;;;;;;;;;;;;;-144.99;60.39;51991.56;5021001;28;19939;-76
2022/07/21 12:08:26;;;;;;;;;;;;;;;-144.99;59.60;51979.31;5004696;28;19925;-76
2022/07/21 12:11:04;;;;;;;;;;;;;;;-144.99;60.03;51979.31;5022222;28;19995;-76
2022/07/21 12:13:30;;;;;;;;;;;;;;;-144.99;59.19;51965.06;5018203;28;20309;-72
2022/07/21 12:15:57;;;;;;;;;;;;;;;-144.99;58.88;51960.97;5020383;28;19964;-74
2022/07/21 12:18:25;;;;;;;;;;;;;;;-144.99;57.84;51893.72;5018379;28;20317;-73
2022/07/21 12:21:01;;;;;;;;;;;;;;;-144.99;55.44;51938.56;5022718;28;20158;-77
2022/07/21 12:23:30;;;;;;;;;;;;;;;-144.99;54.12;51930.41;5033311;28;19929;-72
2022/07/21 12:26:00;;;;;;;;;;;;;;;-144.99;55.08;51999.69;5022332;28;20233;-76